createdAt,value
2023-02-19T00:01:31.287Z,9.40
2023-02-19T00:04:28.484Z,9.40
2023-02-19T00:06:55.284Z,9.40
2023-02-19T00:09:21.958Z,9.40
2023-02-19T00:11:49.046Z,9.30
2023-02-19T00:14:19.622Z,9.30
2023-02-19T00:16:47.262Z,9.30
2023-02-19T00:19:17.662Z,9.30
2023-02-19T00:21:44.509Z,9.20
2023-02-19T00:24:13.488Z,9.20
2023-02-19T00:26:41.526Z,9.20
2023-02-19T00:29:09.836Z,9.30
2023-02-19T00:31:36.715Z,9.20
2023-02-19T00:34:05.896Z,9.20
2023-02-19T00:36:37.635Z,9.20
2023-02-19T00:39:06.015Z,9.20
2023-02-19T00:41:33.175Z,9.20
2023-02-19T00:44:08.058Z,9.20
2023-02-19T00:46:37.586Z,9.30
2023-02-19T00:49:05.838Z,9.30
2023-02-19T00:51:35.365Z,9.30
2023-02-19T00:54:02.433Z,9.30
2023-02-19T00:56:29.425Z,9.30
2023-02-19T00:58:56.574Z,9.30
2023-02-19T01:01:23.320Z,9.30
2023-02-19T01:03:50.421Z,9.30
2023-02-19T01:06:19.109Z,9.30
2023-02-19T01:08:46.310Z,9.30
2023-02-19T01:11:13.619Z,9.30
2023-02-19T01:13:42.039Z,9.30
2023-02-19T01:16:21.468Z,9.30
2023-02-19T01:18:48.800Z,9.30
2023-02-19T01:21:21.525Z,9.30
2023-02-19T01:23:49.673Z,9.30
2023-02-19T01:26:19.366Z,9.30
2023-02-19T01:28:46.547Z,9.30
2023-02-19T01:31:16.010Z,9.30
2023-02-19T01:33:55.170Z,9.20
2023-02-19T01:36:22.695Z,9.40
2023-02-19T01:38:49.858Z,9.30
2023-02-19T01:41:21.140Z,9.30
2023-02-19T01:44:27.806Z,9.30
2023-02-19T01:46:57.572Z,9.30
2023-02-19T01:49:38.186Z,9.30
2023-02-19T01:52:12.610Z,9.30
2023-02-19T01:54:42.794Z,9.30
2023-02-19T01:57:16.785Z,9.30
2023-02-19T01:59:43.955Z,9.30
2023-02-19T02:02:10.806Z,9.30
2023-02-19T02:04:37.748Z,9.30
2023-02-19T02:07:26.439Z,9.30
2023-02-19T02:10:12.429Z,9.10
2023-02-19T02:12:39.145Z,9.20
2023-02-19T02:15:06.523Z,9.20
2023-02-19T02:17:33.172Z,9.20
2023-02-19T02:20:28.821Z,9.20
2023-02-19T02:23:13.816Z,9.20
2023-02-19T02:26:06.898Z,9.30
2023-02-19T02:28:55.607Z,9.40
2023-02-19T02:31:42.666Z,9.50
2023-02-19T02:34:25.456Z,9.60
2023-02-19T02:36:55.695Z,9.70
2023-02-19T02:39:26.001Z,9.70
2023-02-19T02:42:17.207Z,9.60
2023-02-19T02:45:07.322Z,9.60
2023-02-19T02:47:44.821Z,9.60
2023-02-19T02:50:21.920Z,9.60
2023-02-19T02:53:11.092Z,9.50
2023-02-19T02:55:43.328Z,9.50
2023-02-19T02:58:12.842Z,9.40
2023-02-19T03:01:02.505Z,9.40
2023-02-19T03:03:32.315Z,9.40
2023-02-19T03:06:06.660Z,9.40
2023-02-19T03:08:45.240Z,9.40
2023-02-19T03:11:31.575Z,9.40
2023-02-19T03:14:31.763Z,9.30
2023-02-19T03:17:44.077Z,9.30
2023-02-19T03:20:14.469Z,9.30
2023-02-19T03:22:44.785Z,9.20
2023-02-19T03:25:42.711Z,9.20
2023-02-19T03:28:12.693Z,9.20
2023-02-19T03:30:47.058Z,9.20
2023-02-19T03:33:17.338Z,9.20
2023-02-19T03:35:52.580Z,9.20
2023-02-19T03:38:28.408Z,9.20
2023-02-19T03:41:07.861Z,9.30
2023-02-19T03:43:42.492Z,9.20
2023-02-19T03:46:24.654Z,9.20
2023-02-19T03:48:57.350Z,9.20
2023-02-19T03:51:31.262Z,9.20
2023-02-19T03:54:28.711Z,9.20
2023-02-19T03:57:09.319Z,9.20
2023-02-19T03:59:46.461Z,9.20
2023-02-19T04:02:36.322Z,9.20
2023-02-19T04:05:07.446Z,9.30
2023-02-19T04:07:38.978Z,9.20
2023-02-19T04:10:07.546Z,9.20
2023-02-19T04:12:37.192Z,9.20
2023-02-19T04:15:08.972Z,9.30
2023-02-19T04:17:39.361Z,9.20
2023-02-19T04:20:10.048Z,9.20
2023-02-19T04:22:38.656Z,9.20
2023-02-19T04:25:05.773Z,9.20
2023-02-19T04:27:32.894Z,9.10
2023-02-19T04:29:59.663Z,9.10
2023-02-19T04:32:26.435Z,9.10
2023-02-19T04:34:54.391Z,9.10
2023-02-19T04:37:21.220Z,9.10
2023-02-19T04:39:47.938Z,9.10
2023-02-19T04:42:14.660Z,9.10
2023-02-19T04:44:41.427Z,9.00
2023-02-19T04:47:08.465Z,9.00
2023-02-19T04:49:35.310Z,9.00
2023-02-19T04:52:02.045Z,9.00
2023-02-19T04:54:28.842Z,9.00
2023-02-19T04:56:55.673Z,9.00
2023-02-19T04:59:22.369Z,9.00
2023-02-19T05:01:49.129Z,9.00
2023-02-19T05:04:15.872Z,9.00
2023-02-19T05:06:42.653Z,9.00
2023-02-19T05:09:09.360Z,8.90
2023-02-19T05:11:36.104Z,9.00
2023-02-19T05:14:03.092Z,8.90
2023-02-19T05:16:29.829Z,8.90
2023-02-19T05:18:56.661Z,8.90
2023-02-19T05:21:23.338Z,8.90
2023-02-19T05:23:50.135Z,8.90
2023-02-19T05:26:19.780Z,8.90
2023-02-19T05:28:49.118Z,9.00
2023-02-19T05:31:16.929Z,9.00
2023-02-19T05:33:45.698Z,9.00
2023-02-19T05:36:13.818Z,8.90
2023-02-19T05:38:41.238Z,8.90
2023-02-19T05:41:10.850Z,8.90
2023-02-19T05:43:39.158Z,8.80
2023-02-19T05:46:07.134Z,8.90
2023-02-19T05:48:34.640Z,8.80
2023-02-19T05:51:10.467Z,8.80
2023-02-19T05:53:37.760Z,8.70
2023-02-19T05:56:04.957Z,8.60
2023-02-19T05:58:31.660Z,8.60
2023-02-19T06:00:58.405Z,8.60
2023-02-19T06:03:25.352Z,8.60
2023-02-19T06:05:52.084Z,8.50
2023-02-19T06:08:18.847Z,8.50
2023-02-19T06:10:45.669Z,8.50
2023-02-19T06:13:12.406Z,8.40
2023-02-19T06:15:39.432Z,8.40
2023-02-19T06:18:06.174Z,8.30
2023-02-19T06:20:33.143Z,8.40
2023-02-19T06:22:59.919Z,8.30
2023-02-19T06:25:26.696Z,8.30
2023-02-19T06:27:53.382Z,8.30
2023-02-19T06:30:20.505Z,8.30
2023-02-19T06:32:47.350Z,8.30
2023-02-19T06:35:14.186Z,8.30
2023-02-19T06:37:40.937Z,8.20
2023-02-19T06:40:08.198Z,8.30
2023-02-19T06:42:34.965Z,8.20
2023-02-19T06:45:01.681Z,8.20
2023-02-19T06:47:31.962Z,8.20
2023-02-19T06:49:59.389Z,8.20
2023-02-19T06:52:27.374Z,8.20
2023-02-19T06:54:54.165Z,8.20
2023-02-19T06:57:20.899Z,8.20
2023-02-19T06:59:47.686Z,8.20
2023-02-19T07:02:14.463Z,8.20
2023-02-19T07:04:41.203Z,8.20
2023-02-19T07:07:11.925Z,8.10
2023-02-19T07:09:38.712Z,8.20
2023-02-19T07:12:05.901Z,8.20
2023-02-19T07:14:32.779Z,8.20
2023-02-19T07:16:59.541Z,8.10
2023-02-19T07:19:26.245Z,8.20
2023-02-19T07:21:52.963Z,8.20
2023-02-19T07:24:21.555Z,8.30
2023-02-19T07:26:48.404Z,8.30
2023-02-19T07:29:15.151Z,8.30
2023-02-19T07:31:43.125Z,8.30
2023-02-19T07:34:09.869Z,8.30
2023-02-19T07:36:36.713Z,8.30
2023-02-19T07:39:04.139Z,8.30
2023-02-19T07:41:30.948Z,8.40
2023-02-19T07:43:58.288Z,8.40
2023-02-19T07:46:25.156Z,8.40
2023-02-19T07:48:51.944Z,8.40
2023-02-19T07:51:20.052Z,8.50
2023-02-19T07:53:48.330Z,8.50
2023-02-19T07:56:15.345Z,8.50
2023-02-19T07:58:42.574Z,8.50
2023-02-19T08:01:14.464Z,8.50
2023-02-19T08:03:41.731Z,8.60
2023-02-19T08:06:11.150Z,9.70
2023-02-19T08:08:39.198Z,10.40
2023-02-19T08:11:25.685Z,11.30
2023-02-19T08:13:53.370Z,11.80
2023-02-19T08:16:33.074Z,13.00
2023-02-19T08:19:04.047Z,12.20
2023-02-19T08:21:32.578Z,12.30
2023-02-19T08:24:00.179Z,12.90
2023-02-19T08:26:27.093Z,14.60
2023-02-19T08:28:53.834Z,14.80
2023-02-19T08:31:20.670Z,13.40
2023-02-19T08:33:47.517Z,12.70
2023-02-19T08:36:14.248Z,13.50
2023-02-19T08:38:41.001Z,14.30
2023-02-19T08:41:10.479Z,14.60
2023-02-19T08:43:37.996Z,15.50
2023-02-19T08:46:07.032Z,15.00
2023-02-19T08:48:34.003Z,15.70
2023-02-19T08:51:07.126Z,15.40
2023-02-19T08:53:36.437Z,15.30
2023-02-19T08:56:07.520Z,14.40
2023-02-19T08:58:34.239Z,14.90
2023-02-19T09:01:00.985Z,15.10
2023-02-19T09:03:27.841Z,13.90
2023-02-19T09:05:54.596Z,13.70
2023-02-19T09:08:21.376Z,13.70
2023-02-19T09:10:58.577Z,12.70
2023-02-19T09:13:25.408Z,11.90
2023-02-19T09:15:52.158Z,11.60
2023-02-19T09:18:18.881Z,11.00
2023-02-19T09:20:45.615Z,10.90
2023-02-19T09:23:12.300Z,11.00
2023-02-19T09:25:40.168Z,10.90
2023-02-19T09:28:06.897Z,10.90
2023-02-19T09:30:33.748Z,10.70
2023-02-19T09:33:00.540Z,10.60
2023-02-19T09:35:27.276Z,10.90
2023-02-19T09:37:54.046Z,10.80
2023-02-19T09:40:21.850Z,10.80
2023-02-19T09:42:50.828Z,10.70
2023-02-19T09:45:24.989Z,10.50
2023-02-19T09:47:57.414Z,10.50
2023-02-19T09:50:34.165Z,11.10
2023-02-19T09:53:04.676Z,10.90
2023-02-19T09:55:36.125Z,10.70
2023-02-19T09:58:15.584Z,10.50
2023-02-19T10:00:42.613Z,10.50
2023-02-19T10:03:20.839Z,10.60
2023-02-19T10:05:48.209Z,10.30
2023-02-19T10:08:20.218Z,10.50
2023-02-19T10:10:47.403Z,10.40
2023-02-19T10:13:24.284Z,10.40
2023-02-19T10:15:56.895Z,10.30
2023-02-19T10:18:35.702Z,10.10
2023-02-19T10:21:02.497Z,9.80
2023-02-19T10:23:29.504Z,9.80
2023-02-19T10:25:58.866Z,9.90
2023-02-19T10:28:34.621Z,9.90
2023-02-19T10:31:04.248Z,9.90
2023-02-19T10:33:31.280Z,9.90
2023-02-19T10:36:01.397Z,9.90
2023-02-19T10:38:34.280Z,9.90
2023-02-19T10:41:07.694Z,10.10
2023-02-19T10:43:42.100Z,10.00
2023-02-19T10:46:27.680Z,10.00
2023-02-19T10:49:00.440Z,10.10
2023-02-19T10:51:45.918Z,10.20
2023-02-19T10:54:15.688Z,10.10
2023-02-19T10:56:42.470Z,10.20
2023-02-19T10:59:23.835Z,10.10
2023-02-19T11:01:55.920Z,10.10
2023-02-19T11:04:23.181Z,10.20
2023-02-19T11:06:50.197Z,10.30
2023-02-19T11:09:38.744Z,10.30
2023-02-19T11:12:08.391Z,10.40
2023-02-19T11:14:36.285Z,10.20
2023-02-19T11:17:05.667Z,10.40
2023-02-19T11:19:39.029Z,10.70
2023-02-19T11:22:33.766Z,10.80
2023-02-19T11:25:25.744Z,10.80
2023-02-19T11:28:18.169Z,10.60
2023-02-19T11:30:46.698Z,10.50
2023-02-19T11:33:16.511Z,10.40
2023-02-19T11:35:44.502Z,10.40
2023-02-19T11:38:13.173Z,10.40
2023-02-19T11:40:50.448Z,10.50
2023-02-19T11:43:29.403Z,10.60
2023-02-19T11:46:01.969Z,10.50
2023-02-19T11:48:47.309Z,10.40
2023-02-19T11:51:39.569Z,10.40
2023-02-19T11:54:37.457Z,10.40
2023-02-19T11:57:36.963Z,10.50
2023-02-19T12:00:24.796Z,10.50
2023-02-19T12:03:09.567Z,10.40
2023-02-19T12:06:05.363Z,10.60
2023-02-19T12:08:53.660Z,10.60
2023-02-19T12:11:45.194Z,10.70
2023-02-19T12:14:17.817Z,10.70
2023-02-19T12:16:50.411Z,10.70
2023-02-19T12:19:40.479Z,10.70
2023-02-19T12:22:30.926Z,10.80
2023-02-19T12:25:00.392Z,10.70
2023-02-19T12:27:56.090Z,10.70
2023-02-19T12:30:41.266Z,10.70
2023-02-19T12:33:45.609Z,10.60
2023-02-19T12:36:36.001Z,11.90
2023-02-19T12:39:17.316Z,12.80
2023-02-19T12:42:07.993Z,13.30
2023-02-19T12:44:47.525Z,12.90
2023-02-19T12:47:21.432Z,12.70
2023-02-19T12:49:53.887Z,13.00
2023-02-19T12:52:26.014Z,12.40
2023-02-19T12:55:03.067Z,12.40
2023-02-19T12:57:34.692Z,11.70
2023-02-19T13:00:40.775Z,11.60
2023-02-19T13:03:20.960Z,11.50
2023-02-19T13:05:59.212Z,11.60
2023-02-19T13:08:34.751Z,11.30
2023-02-19T13:11:07.463Z,11.20
2023-02-19T13:13:43.359Z,10.90
2023-02-19T13:16:18.589Z,11.10
2023-02-19T13:18:57.807Z,11.30
2023-02-19T13:21:46.204Z,11.30
2023-02-19T13:24:30.848Z,11.20
2023-02-19T13:27:08.553Z,11.20
2023-02-19T13:29:55.527Z,11.50
2023-02-19T13:32:53.720Z,11.50
2023-02-19T13:35:32.272Z,11.60
2023-02-19T13:38:04.336Z,11.40
2023-02-19T13:40:33.815Z,11.30
2023-02-19T13:43:04.486Z,11.10
2023-02-19T13:45:40.047Z,11.20
2023-02-19T13:48:14.624Z,11.30
2023-02-19T13:50:41.715Z,11.00
2023-02-19T13:53:45.718Z,11.00
2023-02-19T13:56:45.192Z,11.00
2023-02-19T13:59:40.440Z,11.10
2023-02-19T14:02:30.627Z,11.10
2023-02-19T14:05:04.281Z,11.00
2023-02-19T14:07:38.789Z,10.80
2023-02-19T14:10:11.908Z,10.70
2023-02-19T14:12:38.687Z,10.50
2023-02-19T14:15:36.491Z,10.50
2023-02-19T14:18:03.244Z,10.50
2023-02-19T14:20:45.879Z,10.50
2023-02-19T14:23:23.718Z,10.50
2023-02-19T14:25:55.052Z,10.50
2023-02-19T14:28:43.868Z,10.50
2023-02-19T14:31:29.342Z,10.40
2023-02-19T14:34:00.456Z,10.50
2023-02-19T14:36:45.093Z,10.50
2023-02-19T14:39:20.291Z,10.50
2023-02-19T14:41:59.177Z,10.50
2023-02-19T14:44:53.485Z,10.40
2023-02-19T14:47:23.116Z,10.30
2023-02-19T14:49:59.169Z,10.20
2023-02-19T14:52:28.404Z,10.10
2023-02-19T14:55:07.364Z,10.10
2023-02-19T14:57:40.904Z,10.10
2023-02-19T15:00:27.107Z,10.10
2023-02-19T15:02:56.696Z,10.30
2023-02-19T15:05:36.700Z,10.40
2023-02-19T15:08:22.100Z,10.40
2023-02-19T15:10:49.276Z,10.40
2023-02-19T15:13:28.243Z,10.40
2023-02-19T15:15:55.474Z,10.40
2023-02-19T15:18:25.570Z,10.40
2023-02-19T15:21:03.136Z,10.50
2023-02-19T15:23:31.207Z,10.50
2023-02-19T15:25:58.439Z,10.50
2023-02-19T15:28:25.203Z,10.50
2023-02-19T15:31:06.336Z,10.40
2023-02-19T15:33:33.827Z,10.40
2023-02-19T15:36:04.568Z,10.20
2023-02-19T15:38:33.107Z,10.10
2023-02-19T15:41:00.334Z,10.10
2023-02-19T15:43:49.779Z,10.10
2023-02-19T15:46:26.137Z,10.10
2023-02-19T15:48:57.301Z,10.00
2023-02-19T15:51:30.010Z,10.00
2023-02-19T15:54:04.171Z,9.90
2023-02-19T15:56:32.787Z,9.80
2023-02-19T15:59:22.886Z,9.80
2023-02-19T16:01:49.915Z,9.70
2023-02-19T16:04:18.742Z,9.70
2023-02-19T16:06:56.145Z,9.60
2023-02-19T16:09:43.171Z,9.60
2023-02-19T16:12:21.627Z,9.60
2023-02-19T16:14:49.299Z,9.60
2023-02-19T16:17:23.174Z,9.50
2023-02-19T16:19:59.619Z,9.50
2023-02-19T16:22:32.805Z,9.40
2023-02-19T16:25:02.681Z,9.40
2023-02-19T16:27:31.418Z,9.40
2023-02-19T16:30:00.740Z,9.40
2023-02-19T16:32:27.953Z,9.40
2023-02-19T16:34:54.860Z,9.30
2023-02-19T16:37:30.835Z,9.30
2023-02-19T16:40:13.106Z,9.30
2023-02-19T16:42:49.924Z,9.30
2023-02-19T16:45:18.263Z,9.30
2023-02-19T16:47:48.391Z,9.30
2023-02-19T16:50:16.856Z,9.30
2023-02-19T16:53:03.898Z,9.30
2023-02-19T16:55:37.325Z,9.30
2023-02-19T16:58:04.014Z,9.30
2023-02-19T17:00:32.050Z,9.30
2023-02-19T17:03:03.080Z,9.30
2023-02-19T17:05:32.533Z,9.30
2023-02-19T17:08:08.382Z,9.30
2023-02-19T17:10:35.066Z,9.30
2023-02-19T17:13:01.743Z,9.40
2023-02-19T17:15:28.593Z,9.30
2023-02-19T17:17:55.310Z,9.20
2023-02-19T17:20:25.378Z,9.20
2023-02-19T17:22:52.104Z,9.20
2023-02-19T17:25:18.916Z,9.20
2023-02-19T17:27:45.789Z,9.20
2023-02-19T17:30:24.772Z,9.20
2023-02-19T17:32:51.766Z,9.20
2023-02-19T17:35:18.467Z,9.20
2023-02-19T17:37:45.241Z,9.20
2023-02-19T17:40:32.706Z,9.10
2023-02-19T17:43:00.769Z,9.10
2023-02-19T17:45:27.709Z,9.10
2023-02-19T17:47:54.481Z,9.10
2023-02-19T17:50:24.011Z,9.10
2023-02-19T17:52:50.835Z,9.10
2023-02-19T17:55:19.045Z,9.10
2023-02-19T17:57:50.002Z,9.10
2023-02-19T18:00:19.119Z,9.00
2023-02-19T18:02:46.177Z,9.10
2023-02-19T18:05:13.089Z,9.00
2023-02-19T18:07:40.152Z,9.00
2023-02-19T18:10:08.054Z,8.90
2023-02-19T18:12:34.917Z,8.80
2023-02-19T18:15:03.228Z,8.70
2023-02-19T18:17:30.034Z,8.60
2023-02-19T18:19:56.735Z,8.60
2023-02-19T18:22:29.303Z,8.60
2023-02-19T18:24:59.298Z,8.50
2023-02-19T18:27:26.511Z,8.50
2023-02-19T18:29:56.637Z,8.50
2023-02-19T18:32:25.224Z,8.50
2023-02-19T18:34:58.276Z,8.50
2023-02-19T18:37:26.275Z,8.50
2023-02-19T18:39:53.568Z,8.50
2023-02-19T18:42:22.207Z,8.60
2023-02-19T18:44:50.042Z,8.60
2023-02-19T18:47:17.830Z,8.60
2023-02-19T18:49:53.015Z,8.60
2023-02-19T18:52:21.158Z,8.50
2023-02-19T18:54:48.967Z,8.50
2023-02-19T18:57:15.869Z,8.60
2023-02-19T18:59:43.655Z,8.50
2023-02-19T19:02:11.415Z,8.50
2023-02-19T19:04:39.041Z,8.50
2023-02-19T19:07:06.631Z,8.50
2023-02-19T19:09:34.298Z,8.50
2023-02-19T19:12:01.548Z,8.50
2023-02-19T19:14:28.304Z,8.50
2023-02-19T19:16:55.056Z,8.50
2023-02-19T19:19:21.792Z,8.50
2023-02-19T19:21:53.480Z,8.50
2023-02-19T19:24:21.110Z,8.50
2023-02-19T19:26:49.106Z,8.60
2023-02-19T19:29:18.186Z,8.60
2023-02-19T19:31:45.101Z,8.60
2023-02-19T19:34:12.926Z,8.60
2023-02-19T19:36:39.711Z,8.60
2023-02-19T19:39:06.557Z,8.60
2023-02-19T19:41:33.321Z,8.60
2023-02-19T19:44:04.499Z,8.60
2023-02-19T19:46:31.579Z,8.60
2023-02-19T19:48:58.539Z,8.60
2023-02-19T19:51:32.062Z,8.60
2023-02-19T19:53:59.072Z,8.60
2023-02-19T19:56:25.799Z,8.70
2023-02-19T19:58:52.615Z,8.60
2023-02-19T20:01:23.623Z,8.60
2023-02-19T20:03:53.081Z,8.60
2023-02-19T20:06:28.808Z,8.60
2023-02-19T20:08:55.644Z,8.60
2023-02-19T20:11:23.159Z,8.60
2023-02-19T20:13:49.963Z,8.60
2023-02-19T20:16:16.781Z,8.60
2023-02-19T20:18:43.517Z,8.60
2023-02-19T20:21:11.349Z,8.60
2023-02-19T20:23:39.646Z,8.60
2023-02-19T20:26:06.790Z,8.60
2023-02-19T20:28:33.675Z,8.50
2023-02-19T20:31:00.587Z,8.50
2023-02-19T20:33:27.403Z,8.50
2023-02-19T20:35:54.216Z,8.50
2023-02-19T20:38:20.994Z,8.50
2023-02-19T20:40:47.729Z,8.50
2023-02-19T20:43:14.504Z,8.50
2023-02-19T20:45:43.057Z,8.50
2023-02-19T20:48:09.759Z,8.50
2023-02-19T20:50:36.488Z,8.40
2023-02-19T20:53:03.228Z,8.40
2023-02-19T20:55:29.938Z,8.30
2023-02-19T20:57:56.604Z,8.40
2023-02-19T21:00:23.568Z,8.50
2023-02-19T21:02:50.350Z,8.40
2023-02-19T21:05:17.776Z,8.40
2023-02-19T21:07:44.519Z,8.40
2023-02-19T21:10:11.873Z,8.30
2023-02-19T21:12:38.614Z,8.40
2023-02-19T21:15:05.997Z,8.40
2023-02-19T21:17:32.801Z,8.40
2023-02-19T21:19:59.594Z,8.30
2023-02-19T21:22:26.295Z,8.30
2023-02-19T21:24:53.659Z,8.30
2023-02-19T21:27:20.773Z,8.30
2023-02-19T21:29:50.615Z,8.30
2023-02-19T21:32:17.517Z,8.30
2023-02-19T21:34:44.367Z,8.30
2023-02-19T21:37:11.062Z,8.20
2023-02-19T21:39:38.811Z,8.20
2023-02-19T21:42:05.552Z,8.20
2023-02-19T21:44:32.282Z,8.20
2023-02-19T21:46:59.039Z,8.10
2023-02-19T21:49:25.788Z,8.10
2023-02-19T21:51:52.703Z,8.10
2023-02-19T21:54:25.016Z,8.00
2023-02-19T21:56:53.247Z,8.00
2023-02-19T21:59:21.570Z,8.00
2023-02-19T22:01:48.976Z,8.00
2023-02-19T22:04:18.786Z,7.90
2023-02-19T22:06:45.595Z,7.90
2023-02-19T22:09:13.778Z,7.90
2023-02-19T22:11:40.617Z,7.90
2023-02-19T22:14:07.724Z,7.90
2023-02-19T22:16:34.619Z,7.90
2023-02-19T22:19:01.427Z,7.90
2023-02-19T22:21:33.515Z,8.00
2023-02-19T22:24:02.226Z,7.90
2023-02-19T22:26:35.265Z,7.90
2023-02-19T22:29:07.348Z,7.90
2023-02-19T22:31:34.778Z,7.90
2023-02-19T22:34:01.792Z,7.90
2023-02-19T22:36:31.097Z,8.00
2023-02-19T22:38:57.960Z,7.90
2023-02-19T22:41:24.884Z,7.90
2023-02-19T22:43:55.075Z,8.00
2023-02-19T22:46:23.694Z,7.90
2023-02-19T22:48:50.737Z,8.00
2023-02-19T22:51:20.002Z,8.00
2023-02-19T22:53:52.384Z,8.00
2023-02-19T22:56:21.030Z,7.90
2023-02-19T22:58:47.940Z,8.00
2023-02-19T23:01:15.415Z,8.00
2023-02-19T23:03:52.985Z,8.00
2023-02-19T23:06:28.561Z,8.00
2023-02-19T23:08:58.231Z,8.00
2023-02-19T23:11:27.524Z,8.00
2023-02-19T23:13:54.613Z,8.00
2023-02-19T23:16:21.416Z,8.00
2023-02-19T23:18:48.803Z,8.00
2023-02-19T23:21:16.313Z,8.00
2023-02-19T23:23:44.823Z,8.00
2023-02-19T23:26:13.293Z,8.00
2023-02-19T23:28:41.617Z,8.00
2023-02-19T23:31:08.777Z,8.00
2023-02-19T23:33:35.851Z,8.00
2023-02-19T23:36:02.694Z,8.00
2023-02-19T23:38:29.481Z,7.90
2023-02-19T23:40:56.177Z,8.00
2023-02-19T23:43:22.907Z,7.90
2023-02-19T23:45:49.746Z,7.90
2023-02-19T23:48:16.453Z,7.90
2023-02-19T23:50:43.281Z,7.90
2023-02-19T23:53:10.236Z,8.30
2023-02-19T23:55:37.151Z,7.90
2023-02-19T23:58:03.887Z,7.90
